createdAt,value
2023-02-15T00:02:17.678Z,20.30
2023-02-15T00:04:49.605Z,25.97
2023-02-15T00:07:21.438Z,25.00
2023-02-15T00:09:53.189Z,26.45
2023-02-15T00:12:25.136Z,24.70
2023-02-15T00:14:56.895Z,22.10
2023-02-15T00:17:29.933Z,23.47
2023-02-15T00:20:01.781Z,21.43
2023-02-15T00:22:33.568Z,24.67
2023-02-15T00:25:05.695Z,20.93
2023-02-15T00:27:37.412Z,20.03
2023-02-15T00:30:09.833Z,21.33
2023-02-15T00:32:41.555Z,22.63
2023-02-15T00:35:13.257Z,24.77
2023-02-15T00:37:45.030Z,24.63
2023-02-15T00:40:16.820Z,22.30
2023-02-15T00:42:48.664Z,21.80
2023-02-15T00:45:22.261Z,22.93
2023-02-15T00:47:54.116Z,23.03
2023-02-15T00:50:25.871Z,24.47
2023-02-15T00:52:57.578Z,25.03
2023-02-15T00:55:29.405Z,24.00
2023-02-15T00:58:01.072Z,23.23
2023-02-15T01:00:32.998Z,24.23
2023-02-15T01:03:05.407Z,24.30
2023-02-15T01:05:37.170Z,25.17
2023-02-15T01:08:09.444Z,24.77
2023-02-15T01:10:41.729Z,25.90
2023-02-15T01:13:14.052Z,25.13
2023-02-15T01:15:46.735Z,24.70
2023-02-15T01:18:18.701Z,24.43
2023-02-15T01:20:50.677Z,23.20
2023-02-15T01:23:22.457Z,24.50
2023-02-15T01:25:54.298Z,23.73
2023-02-15T01:28:26.063Z,24.07
2023-02-15T01:30:57.887Z,27.40
2023-02-15T01:33:29.708Z,24.07
2023-02-15T01:36:01.912Z,23.43
2023-02-15T01:38:35.220Z,26.13
2023-02-15T01:41:25.473Z,25.40
2023-02-15T01:44:02.346Z,24.07
2023-02-15T01:46:41.553Z,23.63
2023-02-15T01:49:17.514Z,24.30
2023-02-15T01:51:51.098Z,24.37
2023-02-15T01:54:28.676Z,24.80
2023-02-15T01:57:11.813Z,25.20
2023-02-15T01:59:48.484Z,21.87
2023-02-15T02:02:25.321Z,23.50
2023-02-15T02:05:07.517Z,23.43
2023-02-15T02:07:46.545Z,23.67
2023-02-15T02:10:23.633Z,23.30
2023-02-15T02:12:59.677Z,25.13
2023-02-15T02:15:59.941Z,25.87
2023-02-15T02:19:19.960Z,23.57
2023-02-15T02:22:15.497Z,22.23
2023-02-15T02:25:02.149Z,23.73
2023-02-15T02:27:58.539Z,25.50
2023-02-15T02:31:04.930Z,24.90
2023-02-15T02:34:14.657Z,24.47
2023-02-15T02:37:17.371Z,23.63
2023-02-15T02:39:59.164Z,23.17
2023-02-15T02:42:45.188Z,26.00
2023-02-15T02:45:26.383Z,21.30
2023-02-15T02:48:04.767Z,24.10
2023-02-15T02:50:39.351Z,22.47
2023-02-15T02:53:12.239Z,22.83
2023-02-15T02:56:07.313Z,24.17
2023-02-15T02:58:47.183Z,21.87
2023-02-15T03:01:46.929Z,20.90
2023-02-15T03:04:23.991Z,22.50
2023-02-15T03:07:06.997Z,22.57
2023-02-15T03:09:46.053Z,25.73
2023-02-15T03:12:28.035Z,24.53
2023-02-15T03:15:10.017Z,22.70
2023-02-15T03:17:48.564Z,23.77
2023-02-15T03:20:29.406Z,23.80
2023-02-15T03:23:05.569Z,24.43
2023-02-15T03:25:47.564Z,26.85
2023-02-15T03:28:28.510Z,23.47
2023-02-15T03:31:04.095Z,22.77
2023-02-15T03:33:41.543Z,23.90
2023-02-15T03:36:25.570Z,24.07
2023-02-15T03:39:19.523Z,23.93
2023-02-15T03:42:02.161Z,22.63
2023-02-15T03:44:45.435Z,23.77
2023-02-15T03:47:21.433Z,25.50
2023-02-15T03:50:26.858Z,22.73
2023-02-15T03:53:01.211Z,22.80
2023-02-15T03:55:35.463Z,21.80
2023-02-15T03:58:26.613Z,21.07
2023-02-15T04:01:29.209Z,21.97
2023-02-15T04:04:08.526Z,22.63
2023-02-15T04:06:40.335Z,21.70
2023-02-15T04:09:31.475Z,21.37
2023-02-15T04:12:03.427Z,22.03
2023-02-15T04:14:53.894Z,23.43
2023-02-15T04:17:25.646Z,23.33
2023-02-15T04:20:15.870Z,23.83
2023-02-15T04:23:06.394Z,23.40
2023-02-15T04:25:38.228Z,22.37
2023-02-15T04:28:10.059Z,21.03
2023-02-15T04:30:41.826Z,23.50
2023-02-15T04:33:13.546Z,23.30
2023-02-15T04:35:46.031Z,22.73
2023-02-15T04:38:17.865Z,21.63
2023-02-15T04:40:53.529Z,24.97
2023-02-15T04:43:25.308Z,23.97
2023-02-15T04:45:57.224Z,24.40
2023-02-15T04:48:29.125Z,23.73
2023-02-15T04:51:05.644Z,23.77
2023-02-15T04:53:37.451Z,22.17
2023-02-15T04:56:09.230Z,24.17
2023-02-15T04:58:43.643Z,22.17
2023-02-15T05:01:15.930Z,22.73
2023-02-15T05:03:47.859Z,20.73
2023-02-15T05:06:19.673Z,22.20
2023-02-15T05:08:51.440Z,20.80
2023-02-15T05:11:23.184Z,23.67
2023-02-15T05:13:54.899Z,23.30
2023-02-15T05:16:28.641Z,21.93
2023-02-15T05:19:00.859Z,21.07
2023-02-15T05:21:33.561Z,22.03
2023-02-15T05:24:25.467Z,24.37
2023-02-15T05:27:15.924Z,19.17
2023-02-15T05:29:47.676Z,20.57
2023-02-15T05:32:19.576Z,20.87
2023-02-15T05:34:51.409Z,22.45
2023-02-15T05:37:23.072Z,20.80
2023-02-15T05:39:54.840Z,22.50
2023-02-15T05:42:26.543Z,20.47
2023-02-15T05:44:58.252Z,19.23
2023-02-15T05:47:30.093Z,21.30
2023-02-15T05:50:01.874Z,17.83
2023-02-15T05:52:34.158Z,18.20
2023-02-15T05:55:06.774Z,19.53
2023-02-15T05:57:38.606Z,17.57
2023-02-15T06:00:11.003Z,18.87
2023-02-15T06:02:42.924Z,19.90
2023-02-15T06:05:14.893Z,18.20
2023-02-15T06:07:46.663Z,19.87
2023-02-15T06:10:18.489Z,19.93
2023-02-15T06:12:50.243Z,19.67
2023-02-15T06:15:22.062Z,19.77
2023-02-15T06:17:53.684Z,18.43
2023-02-15T06:20:25.675Z,19.43
2023-02-15T06:22:57.392Z,19.63
2023-02-15T06:25:29.904Z,18.27
2023-02-15T06:28:01.575Z,18.50
2023-02-15T06:30:33.732Z,20.02
2023-02-15T06:33:05.591Z,20.63
2023-02-15T06:35:37.350Z,18.63
2023-02-15T06:38:09.084Z,18.07
2023-02-15T06:40:40.824Z,18.40
2023-02-15T06:43:12.582Z,17.50
2023-02-15T06:45:44.383Z,18.13
2023-02-15T06:48:16.093Z,17.00
2023-02-15T06:50:47.938Z,17.20
2023-02-15T06:53:19.608Z,18.30
2023-02-15T06:55:51.343Z,18.40
2023-02-15T06:58:23.168Z,16.67
2023-02-15T07:00:54.870Z,17.60
2023-02-15T07:03:26.716Z,20.80
2023-02-15T07:06:00.431Z,19.50
2023-02-15T07:08:32.520Z,18.47
2023-02-15T07:11:25.187Z,17.87
2023-02-15T07:13:57.077Z,16.97
2023-02-15T07:16:29.127Z,14.83
2023-02-15T07:19:00.902Z,15.90
2023-02-15T07:21:32.640Z,15.77
2023-02-15T07:24:04.636Z,16.50
2023-02-15T07:26:36.347Z,16.87
2023-02-15T07:29:08.014Z,17.33
2023-02-15T07:31:39.787Z,15.70
2023-02-15T07:34:11.754Z,16.70
2023-02-15T07:36:45.395Z,15.37
2023-02-15T07:39:17.237Z,16.93
2023-02-15T07:41:49.060Z,16.60
2023-02-15T07:44:20.869Z,19.47
2023-02-15T07:46:52.604Z,23.07
2023-02-15T07:49:24.342Z,22.27
2023-02-15T07:51:56.221Z,24.50
2023-02-15T07:54:28.109Z,25.87
2023-02-15T07:57:01.129Z,24.50
2023-02-15T07:59:32.892Z,23.10
2023-02-15T08:02:10.423Z,23.30
2023-02-15T08:04:42.348Z,23.33
2023-02-15T08:07:14.170Z,24.47
2023-02-15T08:09:45.860Z,25.10
2023-02-15T08:12:17.658Z,22.80
2023-02-15T08:14:49.460Z,24.67
2023-02-15T08:17:21.144Z,27.30
2023-02-15T08:19:53.378Z,25.23
2023-02-15T08:22:27.291Z,24.53
2023-02-15T08:24:59.026Z,29.00
2023-02-15T08:27:30.708Z,27.33
2023-02-15T08:30:02.451Z,28.20
2023-02-15T08:32:34.149Z,29.30
2023-02-15T08:35:06.208Z,26.63
2023-02-15T08:37:38.019Z,27.90
2023-02-15T08:40:10.356Z,25.57
2023-02-15T08:42:42.127Z,28.77
2023-02-15T08:45:13.826Z,24.80
2023-02-15T08:47:45.555Z,24.83
2023-02-15T08:50:17.444Z,25.90
2023-02-15T08:52:49.171Z,22.80
2023-02-15T08:55:21.785Z,24.10
2023-02-15T08:57:56.441Z,22.87
2023-02-15T09:00:29.249Z,24.13
2023-02-15T09:03:01.010Z,22.70
2023-02-15T09:05:32.865Z,22.83
2023-02-15T09:08:04.683Z,22.60
2023-02-15T09:10:36.470Z,22.93
2023-02-15T09:13:08.669Z,22.67
2023-02-15T09:15:40.413Z,25.20
2023-02-15T09:18:13.226Z,24.27
2023-02-15T09:20:45.879Z,22.40
2023-02-15T09:23:26.819Z,21.90
2023-02-15T09:26:04.181Z,22.60
2023-02-15T09:28:36.414Z,21.60
2023-02-15T09:31:08.241Z,20.47
2023-02-15T09:33:41.313Z,22.00
2023-02-15T09:36:22.466Z,19.87
2023-02-15T09:38:59.859Z,20.00
2023-02-15T09:41:55.767Z,20.17
2023-02-15T09:44:54.907Z,20.77
2023-02-15T09:47:45.069Z,21.23
2023-02-15T09:50:36.587Z,19.03
2023-02-15T09:53:17.316Z,21.67
2023-02-15T09:56:04.089Z,18.50
2023-02-15T09:58:57.452Z,17.63
2023-02-15T10:01:52.707Z,16.00
2023-02-15T10:05:02.068Z,16.10
2023-02-15T10:08:08.062Z,18.30
2023-02-15T10:11:26.702Z,17.03
2023-02-15T10:14:25.449Z,17.63
2023-02-15T10:17:26.892Z,18.10
2023-02-15T10:20:20.493Z,17.13
2023-02-15T10:23:14.614Z,16.10
2023-02-15T10:26:08.076Z,15.80
2023-02-15T10:29:10.384Z,15.37
2023-02-15T10:32:15.638Z,14.40
2023-02-15T10:34:51.123Z,16.07
2023-02-15T10:37:43.692Z,13.67
2023-02-15T10:40:42.759Z,15.10
2023-02-15T10:43:17.201Z,13.67
2023-02-15T10:46:12.394Z,13.17
2023-02-15T10:49:16.877Z,12.53
2023-02-15T10:52:00.439Z,14.00
2023-02-15T10:54:57.872Z,14.40
2023-02-15T10:57:45.265Z,12.17
2023-02-15T11:00:47.686Z,12.60
2023-02-15T11:03:55.828Z,13.83
2023-02-15T11:06:28.018Z,12.63
2023-02-15T11:09:14.032Z,12.30
2023-02-15T11:11:50.327Z,12.20
2023-02-15T11:14:44.801Z,12.23
2023-02-15T11:17:23.561Z,11.53
2023-02-15T11:20:05.496Z,11.33
2023-02-15T11:22:37.493Z,9.80
2023-02-15T11:25:33.447Z,11.00
2023-02-15T11:28:17.997Z,11.27
2023-02-15T11:30:56.560Z,10.50
2023-02-15T11:33:34.851Z,10.82
2023-02-15T11:36:17.768Z,11.27
2023-02-15T11:38:58.956Z,10.50
2023-02-15T11:41:35.517Z,9.87
2023-02-15T11:44:07.194Z,9.97
2023-02-15T11:46:39.309Z,9.37
2023-02-15T11:49:28.797Z,8.83
2023-02-15T11:52:04.960Z,9.80
2023-02-15T11:54:41.400Z,8.30
2023-02-15T11:57:26.497Z,8.30
2023-02-15T12:00:15.816Z,8.70
2023-02-15T12:02:51.207Z,8.07
2023-02-15T12:05:25.829Z,9.30
2023-02-15T12:08:04.999Z,8.60
2023-02-15T12:10:43.876Z,9.30
2023-02-15T12:13:21.148Z,8.30
2023-02-15T12:15:56.661Z,9.80
2023-02-15T12:18:40.453Z,9.50
2023-02-15T12:21:27.601Z,9.40
2023-02-15T12:24:22.153Z,8.60
2023-02-15T12:27:02.986Z,9.43
2023-02-15T12:29:42.680Z,8.40
2023-02-15T12:32:25.338Z,9.30
2023-02-15T12:35:15.134Z,9.93
2023-02-15T12:38:01.148Z,8.13
2023-02-15T12:40:34.961Z,9.37
2023-02-15T12:43:35.792Z,7.37
2023-02-15T12:46:23.778Z,8.20
2023-02-15T12:49:10.842Z,9.80
2023-02-15T12:51:53.844Z,14.87
2023-02-15T12:54:42.373Z,12.40
2023-02-15T12:57:34.598Z,12.37
2023-02-15T13:00:27.562Z,13.37
2023-02-15T13:03:01.085Z,16.60
2023-02-15T13:05:39.797Z,17.20
2023-02-15T13:08:42.102Z,19.77
2023-02-15T13:11:20.345Z,17.43
2023-02-15T13:13:56.144Z,18.37
2023-02-15T13:16:37.489Z,18.90
2023-02-15T13:19:35.806Z,18.53
2023-02-15T13:22:13.833Z,17.23
2023-02-15T13:24:51.147Z,17.07
2023-02-15T13:27:27.132Z,15.60
2023-02-15T13:30:03.336Z,15.03
2023-02-15T13:32:41.967Z,14.93
2023-02-15T13:35:18.351Z,15.90
2023-02-15T13:37:50.133Z,14.97
2023-02-15T13:40:29.371Z,15.47
2023-02-15T13:43:30.123Z,15.63
2023-02-15T13:46:27.798Z,15.30
2023-02-15T13:49:33.255Z,13.27
2023-02-15T13:52:25.037Z,11.93
2023-02-15T13:54:56.698Z,12.70
2023-02-15T13:57:53.220Z,11.10
2023-02-15T14:00:50.226Z,12.03
2023-02-15T14:03:50.316Z,11.70
2023-02-15T14:06:32.532Z,11.17
2023-02-15T14:09:41.532Z,13.03
2023-02-15T14:12:26.486Z,15.10
2023-02-15T14:15:05.438Z,14.67
2023-02-15T14:17:55.716Z,13.00
2023-02-15T14:20:42.805Z,15.30
2023-02-15T14:23:32.676Z,16.00
2023-02-15T14:26:32.928Z,16.90
2023-02-15T14:29:24.308Z,15.43
2023-02-15T14:32:02.603Z,16.27
2023-02-15T14:34:37.496Z,15.83
2023-02-15T14:37:13.105Z,16.03
2023-02-15T14:40:23.288Z,19.47
2023-02-15T14:43:02.193Z,16.83
2023-02-15T14:45:46.454Z,19.77
2023-02-15T14:48:34.229Z,19.93
2023-02-15T14:51:06.079Z,19.53
2023-02-15T14:53:39.920Z,20.90
2023-02-15T14:56:11.662Z,18.33
2023-02-15T14:58:53.232Z,21.00
2023-02-15T15:01:27.875Z,18.80
2023-02-15T15:04:09.734Z,17.90
2023-02-15T15:06:44.010Z,17.10
2023-02-15T15:09:31.642Z,18.00
2023-02-15T15:12:36.591Z,18.50
2023-02-15T15:15:11.896Z,18.20
2023-02-15T15:17:55.956Z,18.57
2023-02-15T15:20:28.034Z,17.20
2023-02-15T15:23:20.862Z,16.43
2023-02-15T15:26:17.784Z,13.27
2023-02-15T15:28:49.485Z,11.33
2023-02-15T15:31:53.618Z,12.25
2023-02-15T15:34:45.818Z,12.23
2023-02-15T15:37:23.592Z,12.13
2023-02-15T15:40:37.713Z,11.80
2023-02-15T15:43:09.349Z,12.20
2023-02-15T15:46:07.701Z,12.57
2023-02-15T15:48:41.287Z,11.37
2023-02-15T15:51:20.116Z,11.03
2023-02-15T15:53:54.376Z,11.83
2023-02-15T15:56:35.866Z,12.80
2023-02-15T15:59:17.529Z,12.40
2023-02-15T16:01:49.755Z,14.67
2023-02-15T16:04:30.701Z,14.07
2023-02-15T16:07:17.495Z,12.23
2023-02-15T16:09:55.427Z,12.73
2023-02-15T16:12:29.916Z,11.50
2023-02-15T16:15:15.402Z,10.97
2023-02-15T16:17:55.789Z,10.67
2023-02-15T16:20:35.042Z,11.50
2023-02-15T16:23:09.819Z,11.30
2023-02-15T16:25:59.176Z,11.07
2023-02-15T16:28:31.094Z,11.30
2023-02-15T16:31:10.122Z,11.97
2023-02-15T16:33:45.826Z,11.93
2023-02-15T16:36:28.962Z,11.93
2023-02-15T16:39:07.602Z,11.77
2023-02-15T16:41:39.468Z,12.10
2023-02-15T16:44:20.941Z,12.03
2023-02-15T16:46:54.976Z,12.50
2023-02-15T16:49:29.318Z,13.33
2023-02-15T16:52:04.029Z,13.40
2023-02-15T16:54:36.541Z,11.20
2023-02-15T16:57:18.369Z,11.80
2023-02-15T16:59:53.236Z,13.13
2023-02-15T17:02:53.109Z,12.00
2023-02-15T17:05:21.717Z,12.87
2023-02-15T17:08:17.480Z,14.43
2023-02-15T17:11:04.537Z,13.77
2023-02-15T17:13:36.442Z,13.70
2023-02-15T17:16:27.097Z,11.23
2023-02-15T17:19:08.821Z,13.20
2023-02-15T17:22:13.922Z,14.17
2023-02-15T17:24:48.904Z,14.57
2023-02-15T17:27:25.295Z,15.00
2023-02-15T17:29:59.645Z,13.43
2023-02-15T17:32:34.477Z,13.97
2023-02-15T17:35:19.967Z,15.53
2023-02-15T17:38:05.796Z,16.43
2023-02-15T17:40:38.144Z,16.00
2023-02-15T17:43:09.858Z,14.90
2023-02-15T17:45:47.809Z,15.27
2023-02-15T17:48:34.793Z,14.77
2023-02-15T17:51:12.117Z,13.33
2023-02-15T17:54:03.027Z,14.23
2023-02-15T17:56:36.475Z,13.80
2023-02-15T17:59:08.222Z,14.00
2023-02-15T18:02:05.894Z,15.00
2023-02-15T18:04:56.413Z,14.10
2023-02-15T18:07:47.268Z,12.47
2023-02-15T18:10:38.281Z,12.70
2023-02-15T18:13:09.955Z,12.55
2023-02-15T18:15:41.693Z,12.90
2023-02-15T18:18:14.556Z,11.37
2023-02-15T18:20:46.332Z,12.00
2023-02-15T18:23:18.172Z,12.83
2023-02-15T18:25:49.856Z,12.60
2023-02-15T18:28:21.527Z,12.23
2023-02-15T18:30:53.558Z,12.37
2023-02-15T18:33:39.145Z,12.60
2023-02-15T18:36:18.466Z,13.43
2023-02-15T18:38:50.596Z,10.63
2023-02-15T18:41:22.887Z,11.70
2023-02-15T18:43:55.437Z,11.43
2023-02-15T18:46:27.221Z,12.97
2023-02-15T18:48:59.345Z,12.80
2023-02-15T18:51:32.088Z,11.70
2023-02-15T18:54:03.888Z,13.32
2023-02-15T18:56:35.778Z,12.33
2023-02-15T18:59:15.456Z,12.73
2023-02-15T19:01:47.132Z,12.60
2023-02-15T19:04:18.860Z,12.70
2023-02-15T19:06:50.650Z,14.10
2023-02-15T19:09:24.601Z,12.60
2023-02-15T19:11:56.810Z,13.03
2023-02-15T19:14:32.727Z,15.80
2023-02-15T19:17:04.508Z,15.30
2023-02-15T19:19:36.213Z,15.20
2023-02-15T19:22:14.451Z,13.80
2023-02-15T19:24:47.804Z,16.40
2023-02-15T19:27:25.365Z,17.17
2023-02-15T19:30:00.237Z,14.47
2023-02-15T19:32:32.046Z,15.50
2023-02-15T19:35:04.480Z,15.10
2023-02-15T19:37:42.533Z,16.43
2023-02-15T19:40:30.175Z,15.37
2023-02-15T19:43:03.422Z,14.57
2023-02-15T19:45:35.107Z,17.33
2023-02-15T19:48:06.842Z,13.60
2023-02-15T19:50:38.679Z,15.00
2023-02-15T19:53:26.204Z,15.45
2023-02-15T19:55:58.064Z,15.57
2023-02-15T19:58:29.986Z,15.13
2023-02-15T20:01:02.844Z,14.77
2023-02-15T20:03:35.294Z,16.50
2023-02-15T20:06:10.725Z,13.50
2023-02-15T20:08:43.222Z,13.43
2023-02-15T20:11:15.095Z,16.60
2023-02-15T20:13:46.901Z,17.33
2023-02-15T20:16:18.710Z,22.17
2023-02-15T20:18:50.661Z,20.00
2023-02-15T20:21:22.526Z,21.10
2023-02-15T20:23:54.358Z,17.17
2023-02-15T20:26:29.632Z,18.23
2023-02-15T20:29:02.590Z,18.40
2023-02-15T20:31:34.400Z,16.57
2023-02-15T20:34:06.114Z,17.40
2023-02-15T20:36:39.504Z,16.90
2023-02-15T20:39:17.304Z,17.30
2023-02-15T20:41:49.177Z,16.80
2023-02-15T20:44:24.047Z,18.07
2023-02-15T20:46:58.526Z,21.37
2023-02-15T20:49:30.380Z,18.67
2023-02-15T20:52:03.961Z,23.57
2023-02-15T20:54:36.793Z,18.03
2023-02-15T20:57:12.259Z,17.20
2023-02-15T20:59:44.123Z,17.70
2023-02-15T21:02:20.866Z,16.47
2023-02-15T21:04:52.723Z,23.53
2023-02-15T21:07:24.565Z,18.30
2023-02-15T21:09:56.352Z,16.70
2023-02-15T21:12:29.706Z,17.00
2023-02-15T21:15:01.460Z,19.77
2023-02-15T21:17:33.174Z,18.43
2023-02-15T21:20:05.366Z,17.80
2023-02-15T21:22:37.119Z,17.30
2023-02-15T21:25:15.722Z,18.70
2023-02-15T21:27:47.504Z,17.10
2023-02-15T21:30:21.662Z,17.80
2023-02-15T21:32:53.740Z,17.40
2023-02-15T21:35:25.930Z,16.67
2023-02-15T21:37:57.741Z,16.87
2023-02-15T21:40:31.147Z,17.60
2023-02-15T21:43:21.223Z,18.10
2023-02-15T21:46:16.229Z,18.23
2023-02-15T21:48:47.910Z,20.67
2023-02-15T21:51:38.251Z,19.73
2023-02-15T21:54:14.799Z,19.30
2023-02-15T21:56:48.742Z,20.23
2023-02-15T21:59:20.506Z,17.63
2023-02-15T22:01:52.311Z,20.70
2023-02-15T22:04:27.191Z,18.10
2023-02-15T22:06:59.355Z,19.17
2023-02-15T22:09:31.177Z,17.90
2023-02-15T22:12:03.039Z,17.87
2023-02-15T22:14:40.044Z,20.23
2023-02-15T22:17:18.005Z,18.13
2023-02-15T22:19:50.726Z,19.50
2023-02-15T22:22:22.884Z,19.05
2023-02-15T22:24:54.628Z,19.33
2023-02-15T22:27:27.953Z,17.40
2023-02-15T22:29:59.839Z,16.47
2023-02-15T22:32:31.665Z,20.60
2023-02-15T22:35:03.501Z,21.00
2023-02-15T22:37:35.537Z,21.40
2023-02-15T22:40:07.760Z,22.10
2023-02-15T22:42:39.510Z,21.45
2023-02-15T22:45:20.313Z,21.60
2023-02-15T22:47:55.372Z,19.30
2023-02-15T22:50:31.081Z,22.07
2023-02-15T22:53:03.526Z,22.43
2023-02-15T22:55:37.047Z,24.10
2023-02-15T22:58:15.357Z,22.77
2023-02-15T23:00:47.272Z,22.60
2023-02-15T23:03:22.792Z,23.67
2023-02-15T23:05:54.740Z,25.20
2023-02-15T23:08:26.417Z,24.60
2023-02-15T23:10:58.174Z,24.00
2023-02-15T23:13:32.353Z,20.33
2023-02-15T23:16:06.525Z,23.08
2023-02-15T23:18:40.060Z,22.27
2023-02-15T23:21:22.212Z,21.27
2023-02-15T23:24:09.760Z,21.50
2023-02-15T23:26:41.527Z,19.90
2023-02-15T23:29:16.321Z,20.10
2023-02-15T23:31:53.086Z,20.07
2023-02-15T23:34:31.034Z,20.03
2023-02-15T23:37:02.723Z,21.80
2023-02-15T23:39:53.219Z,21.80
2023-02-15T23:42:33.308Z,22.87
2023-02-15T23:45:17.959Z,20.70
2023-02-15T23:48:08.182Z,19.63
2023-02-15T23:50:40.326Z,19.87
2023-02-15T23:53:12.058Z,19.07
2023-02-15T23:55:45.229Z,18.07
2023-02-15T23:58:19.524Z,18.07
